createdAt,value
2022-11-16T00:01:44.333Z,127.13
2022-11-16T00:04:14.195Z,128.90
2022-11-16T00:06:42.008Z,131.27
2022-11-16T00:09:26.858Z,129.00
2022-11-16T00:11:57.323Z,124.15
2022-11-16T00:14:27.586Z,133.25
2022-11-16T00:16:56.271Z,124.57
2022-11-16T00:19:26.775Z,125.40
2022-11-16T00:21:54.987Z,134.77
2022-11-16T00:24:24.687Z,135.15
2022-11-16T00:26:54.810Z,133.25
2022-11-16T00:29:25.033Z,127.15
2022-11-16T00:31:53.729Z,126.18
2022-11-16T00:34:22.326Z,123.63
2022-11-16T00:36:51.990Z,122.25
2022-11-16T00:39:20.911Z,123.43
2022-11-16T00:41:49.188Z,126.32
2022-11-16T00:44:17.998Z,124.90
2022-11-16T00:46:46.440Z,114.72
2022-11-16T00:49:14.492Z,122.60
2022-11-16T00:51:42.727Z,122.45
2022-11-16T00:54:12.376Z,130.77
2022-11-16T00:56:40.451Z,130.20
2022-11-16T00:59:09.072Z,124.85
2022-11-16T01:01:37.151Z,118.40
2022-11-16T01:04:05.518Z,109.50
2022-11-16T01:06:33.480Z,91.30
2022-11-16T01:09:02.011Z,100.40
2022-11-16T01:11:48.536Z,104.95
2022-11-16T01:14:17.335Z,102.65
2022-11-16T01:16:45.205Z,112.10
2022-11-16T01:19:13.299Z,112.03
2022-11-16T01:21:41.393Z,128.13
2022-11-16T01:24:09.521Z,123.40
2022-11-16T01:26:38.804Z,124.22
2022-11-16T01:29:07.392Z,126.07
2022-11-16T01:31:35.209Z,117.97
2022-11-16T01:34:03.249Z,121.10
2022-11-16T01:36:31.500Z,112.97
2022-11-16T01:38:59.719Z,112.13
2022-11-16T01:41:28.163Z,117.43
2022-11-16T01:44:00.200Z,119.03
2022-11-16T01:46:29.687Z,117.05
2022-11-16T01:49:02.868Z,120.68
2022-11-16T01:51:30.962Z,124.05
2022-11-16T01:54:02.354Z,127.22
2022-11-16T01:56:32.560Z,131.38
2022-11-16T01:59:02.491Z,138.68
2022-11-16T02:01:30.397Z,125.25
2022-11-16T02:03:58.506Z,124.57
2022-11-16T02:06:37.317Z,125.28
2022-11-16T02:09:42.849Z,119.60
2022-11-16T02:12:32.126Z,150.88
2022-11-16T02:15:12.975Z,123.80
2022-11-16T02:17:50.560Z,109.88
2022-11-16T02:20:43.555Z,97.45
2022-11-16T02:23:51.923Z,89.35
2022-11-16T02:26:36.255Z,109.88
2022-11-16T02:29:22.375Z,121.10
2022-11-16T02:31:57.132Z,100.38
2022-11-16T02:34:29.471Z,104.57
2022-11-16T02:37:00.448Z,114.32
2022-11-16T02:39:30.911Z,111.82
2022-11-16T02:42:00.706Z,123.55
2022-11-16T02:44:33.833Z,115.00
2022-11-16T02:47:06.659Z,113.93
2022-11-16T02:49:37.416Z,113.15
2022-11-16T02:52:06.093Z,117.53
2022-11-16T02:54:33.877Z,118.15
2022-11-16T02:57:29.508Z,122.90
2022-11-16T03:00:00.142Z,112.45
2022-11-16T03:02:33.722Z,114.72
2022-11-16T03:05:08.128Z,117.82
2022-11-16T03:07:43.370Z,124.07
2022-11-16T03:10:32.090Z,116.13
2022-11-16T03:13:02.310Z,115.43
2022-11-16T03:15:32.236Z,118.35
2022-11-16T03:18:01.607Z,104.55
2022-11-16T03:20:34.112Z,107.40
2022-11-16T03:23:05.892Z,106.97
2022-11-16T03:25:39.704Z,112.15
2022-11-16T03:28:13.305Z,111.57
2022-11-16T03:30:50.650Z,103.15
2022-11-16T03:33:23.132Z,106.63
2022-11-16T03:35:57.356Z,82.13
2022-11-16T03:38:28.318Z,97.10
2022-11-16T03:41:00.333Z,113.78
2022-11-16T03:43:29.470Z,120.15
2022-11-16T03:45:58.888Z,126.65
2022-11-16T03:48:27.162Z,137.85
2022-11-16T03:50:55.016Z,145.43
2022-11-16T03:53:22.969Z,167.80
2022-11-16T03:55:50.792Z,181.05
2022-11-16T03:58:18.950Z,174.73
2022-11-16T04:00:46.843Z,187.10
2022-11-16T04:03:16.333Z,152.45
2022-11-16T04:06:02.072Z,164.15
2022-11-16T04:08:44.103Z,155.48
2022-11-16T04:11:31.804Z,164.23
2022-11-16T04:14:17.787Z,143.57
2022-11-16T04:17:03.384Z,145.75
2022-11-16T04:19:54.036Z,144.18
2022-11-16T04:22:47.098Z,154.50
2022-11-16T04:25:19.666Z,153.07
2022-11-16T04:28:05.716Z,192.25
2022-11-16T04:30:56.318Z,201.02
2022-11-16T04:33:41.767Z,223.40
2022-11-16T04:36:29.044Z,220.88
2022-11-16T04:38:56.888Z,202.95
2022-11-16T04:41:42.563Z,213.00
2022-11-16T04:44:10.460Z,222.70
2022-11-16T04:46:56.135Z,234.70
2022-11-16T04:49:24.020Z,212.43
2022-11-16T04:51:53.500Z,225.23
2022-11-16T04:54:21.249Z,200.10
2022-11-16T04:56:49.425Z,227.05
2022-11-16T04:59:17.391Z,214.73
2022-11-16T05:02:03.328Z,209.77
2022-11-16T05:04:31.687Z,170.80
2022-11-16T05:07:01.084Z,185.27
2022-11-16T05:09:28.844Z,193.25
2022-11-16T05:11:57.238Z,189.10
2022-11-16T05:14:24.950Z,185.05
2022-11-16T05:16:52.932Z,208.30
2022-11-16T05:19:38.427Z,198.38
2022-11-16T05:22:07.735Z,198.45
2022-11-16T05:24:35.799Z,159.63
2022-11-16T05:27:05.544Z,158.93
2022-11-16T05:29:33.418Z,151.75
2022-11-16T05:32:02.483Z,142.45
2022-11-16T05:34:30.299Z,160.65
2022-11-16T05:36:58.456Z,182.52
2022-11-16T05:39:28.205Z,187.20
2022-11-16T05:41:57.189Z,184.95
2022-11-16T05:44:25.350Z,179.57
2022-11-16T05:46:55.131Z,201.38
2022-11-16T05:49:23.370Z,197.27
2022-11-16T05:51:51.916Z,206.85
2022-11-16T05:54:22.147Z,170.65
2022-11-16T05:56:51.776Z,203.00
2022-11-16T05:59:21.852Z,158.00
2022-11-16T06:01:50.351Z,175.35
2022-11-16T06:04:24.352Z,170.38
2022-11-16T06:06:53.334Z,155.10
2022-11-16T06:09:21.249Z,143.20
2022-11-16T06:11:49.320Z,170.43
2022-11-16T06:14:18.499Z,165.68
2022-11-16T06:16:46.575Z,152.38
2022-11-16T06:19:14.239Z,136.48
2022-11-16T06:21:42.387Z,153.27
2022-11-16T06:24:10.203Z,163.32
2022-11-16T06:26:38.423Z,140.07
2022-11-16T06:29:06.249Z,163.52
2022-11-16T06:31:35.710Z,177.38
2022-11-16T06:34:03.447Z,209.00
2022-11-16T06:36:32.030Z,223.73
2022-11-16T06:39:00.975Z,208.90
2022-11-16T06:41:28.964Z,187.38
2022-11-16T06:43:56.813Z,215.88
2022-11-16T06:46:25.512Z,167.15
2022-11-16T06:48:54.577Z,154.98
2022-11-16T06:51:22.712Z,139.10
2022-11-16T06:53:50.804Z,100.93
2022-11-16T06:56:19.462Z,113.75
2022-11-16T06:58:47.338Z,103.45
2022-11-16T07:01:15.484Z,148.55
2022-11-16T07:03:43.216Z,160.77
2022-11-16T07:06:14.129Z,128.50
2022-11-16T07:08:42.029Z,132.52
2022-11-16T07:11:11.645Z,147.25
2022-11-16T07:13:40.023Z,133.38
2022-11-16T07:16:09.934Z,133.93
2022-11-16T07:18:39.288Z,150.60
2022-11-16T07:21:07.931Z,141.70
2022-11-16T07:23:37.591Z,124.03
2022-11-16T07:26:07.119Z,123.28
2022-11-16T07:28:35.381Z,102.45
2022-11-16T07:31:04.443Z,105.57
2022-11-16T07:33:32.313Z,98.90
2022-11-16T07:36:02.945Z,94.25
2022-11-16T07:38:32.056Z,83.25
2022-11-16T07:41:02.695Z,73.88
2022-11-16T07:43:31.657Z,83.28
2022-11-16T07:46:30.309Z,81.40
2022-11-16T07:48:51.069Z,78.00
2022-11-16T07:51:20.200Z,73.28
2022-11-16T07:53:47.908Z,77.43
2022-11-16T07:56:17.455Z,84.22
2022-11-16T07:58:45.639Z,83.85
2022-11-16T08:01:16.513Z,71.30
2022-11-16T08:03:46.492Z,74.03
2022-11-16T08:06:17.757Z,70.90
2022-11-16T08:08:45.672Z,74.28
2022-11-16T08:11:14.084Z,83.15
2022-11-16T08:13:44.269Z,81.68
2022-11-16T08:16:14.676Z,86.50
2022-11-16T08:18:43.276Z,93.57
2022-11-16T08:21:13.815Z,93.15
2022-11-16T08:23:41.919Z,93.53
2022-11-16T08:26:14.300Z,92.50
2022-11-16T08:28:44.783Z,94.30
2022-11-16T08:31:15.428Z,105.95
2022-11-16T08:33:43.428Z,115.57
2022-11-16T08:36:17.035Z,117.43
2022-11-16T08:38:45.652Z,123.68
2022-11-16T08:41:13.907Z,120.30
2022-11-16T08:43:44.532Z,125.93
2022-11-16T08:46:12.751Z,122.85
2022-11-16T08:48:41.019Z,126.50
2022-11-16T08:51:17.334Z,130.98
2022-11-16T08:53:48.063Z,125.15
2022-11-16T08:56:18.314Z,124.38
2022-11-16T08:58:50.395Z,107.50
2022-11-16T09:01:21.907Z,113.95
2022-11-16T09:03:49.830Z,93.10
2022-11-16T09:06:18.087Z,144.48
2022-11-16T09:08:47.676Z,75.53
2022-11-16T09:11:17.891Z,86.43
2022-11-16T09:13:47.941Z,93.95
2022-11-16T09:16:16.948Z,85.03
2022-11-16T09:18:46.302Z,103.00
2022-11-16T09:21:18.022Z,91.70
2022-11-16T09:23:46.256Z,92.90
2022-11-16T09:26:14.520Z,96.57
2022-11-16T09:28:42.240Z,116.55
2022-11-16T09:31:11.766Z,109.32
2022-11-16T09:33:39.496Z,104.25
2022-11-16T09:36:09.947Z,96.50
2022-11-16T09:39:13.987Z,92.72
2022-11-16T09:41:48.260Z,85.65
2022-11-16T09:44:35.403Z,83.25
2022-11-16T09:47:09.345Z,84.22
2022-11-16T09:49:43.383Z,82.70
2022-11-16T09:52:21.817Z,81.20
2022-11-16T09:54:51.018Z,78.15
2022-11-16T09:57:25.148Z,67.35
2022-11-16T09:59:58.203Z,61.17
2022-11-16T10:02:31.926Z,58.90
2022-11-16T10:05:04.856Z,62.03
2022-11-16T10:07:38.150Z,61.10
2022-11-16T10:10:07.212Z,61.50
2022-11-16T10:12:43.517Z,56.70
2022-11-16T10:15:41.361Z,50.42
2022-11-16T10:18:21.888Z,43.38
2022-11-16T10:21:18.831Z,38.05
2022-11-16T10:24:05.662Z,35.78
2022-11-16T10:26:41.830Z,33.38
2022-11-16T10:29:22.485Z,33.17
2022-11-16T10:32:13.568Z,35.45
2022-11-16T10:34:52.148Z,34.97
2022-11-16T10:37:21.168Z,41.35
2022-11-16T10:39:51.144Z,48.58
2022-11-16T10:42:24.053Z,42.65
2022-11-16T10:44:57.949Z,47.60
2022-11-16T10:47:33.923Z,41.17
2022-11-16T10:50:16.658Z,86.68
2022-11-16T10:52:44.464Z,45.28
2022-11-16T10:55:15.748Z,41.28
2022-11-16T10:57:58.189Z,44.38
2022-11-16T11:00:42.228Z,43.67
2022-11-16T11:03:11.835Z,43.35
2022-11-16T11:05:52.302Z,43.08
2022-11-16T11:08:27.550Z,45.78
2022-11-16T11:11:01.771Z,38.85
2022-11-16T11:13:29.673Z,36.83
2022-11-16T11:16:16.987Z,38.15
2022-11-16T11:18:44.721Z,37.55
2022-11-16T11:21:20.111Z,37.88
2022-11-16T11:23:50.872Z,34.88
2022-11-16T11:26:36.521Z,38.95
2022-11-16T11:29:16.751Z,38.42
2022-11-16T11:31:48.463Z,39.75
2022-11-16T11:34:19.919Z,40.83
2022-11-16T11:36:53.260Z,40.63
2022-11-16T11:39:36.315Z,39.25
2022-11-16T11:42:20.581Z,37.15
2022-11-16T11:44:54.425Z,37.00
2022-11-16T11:50:25.737Z,38.90
2022-11-16T11:53:04.212Z,38.75
2022-11-16T11:55:32.208Z,35.90
2022-11-16T11:58:02.946Z,41.72
2022-11-16T12:00:39.192Z,38.20
2022-11-16T12:03:30.824Z,37.55
2022-11-16T12:06:08.606Z,34.67
2022-11-16T12:08:59.984Z,35.92
2022-11-16T12:11:34.785Z,34.28
2022-11-16T12:14:23.381Z,32.85
2022-11-16T12:17:02.430Z,32.22
2022-11-16T12:19:56.229Z,32.13
2022-11-16T12:22:43.829Z,32.05
2022-11-16T12:25:25.897Z,33.33
2022-11-16T12:28:16.223Z,34.15
2022-11-16T12:30:54.924Z,37.28
2022-11-16T12:33:32.860Z,35.60
2022-11-16T12:36:05.717Z,38.63
2022-11-16T12:41:38.452Z,31.85
2022-11-16T12:44:09.582Z,35.08
2022-11-16T12:46:50.403Z,30.70
2022-11-16T12:49:39.780Z,31.75
2022-11-16T12:52:23.051Z,29.77
2022-11-16T12:55:27.585Z,40.55
2022-11-16T12:58:08.521Z,34.92
2022-11-16T13:00:53.907Z,33.13
2022-11-16T13:03:28.970Z,35.83
2022-11-16T13:06:01.408Z,39.45
2022-11-16T13:08:50.944Z,45.15
2022-11-16T13:11:23.828Z,26.70
2022-11-16T13:13:58.005Z,26.20
2022-11-16T13:16:26.933Z,22.95
2022-11-16T13:18:55.949Z,19.40
2022-11-16T13:21:34.827Z,15.50
2022-11-16T13:24:32.274Z,15.82
2022-11-16T13:27:14.903Z,14.20
2022-11-16T13:29:49.944Z,14.48
2022-11-16T13:32:24.344Z,12.40
2022-11-16T13:34:53.296Z,13.43
2022-11-16T13:37:43.872Z,11.52
2022-11-16T13:40:22.656Z,11.52
2022-11-16T13:43:19.220Z,11.48
2022-11-16T13:45:58.668Z,11.60
2022-11-16T13:48:33.264Z,11.52
2022-11-16T13:51:04.153Z,12.10
2022-11-16T13:56:28.607Z,10.02
2022-11-16T13:58:59.452Z,10.13
2022-11-16T14:01:57.436Z,8.93
2022-11-16T14:04:50.753Z,6.13
2022-11-16T14:07:30.328Z,5.55
2022-11-16T14:09:58.705Z,5.20
2022-11-16T14:12:51.491Z,6.82
2022-11-16T14:15:21.898Z,6.95
2022-11-16T14:17:54.625Z,5.97
2022-11-16T14:23:12.885Z,5.47
2022-11-16T14:25:47.090Z,8.52
2022-11-16T14:28:32.267Z,6.82
2022-11-16T14:31:14.113Z,7.82
2022-11-16T14:33:44.233Z,11.05
2022-11-16T14:36:12.467Z,9.18
2022-11-16T14:38:43.620Z,7.20
2022-11-16T14:41:25.528Z,9.43
2022-11-16T14:43:56.256Z,8.40
2022-11-16T14:46:28.009Z,7.90
2022-11-16T14:48:59.357Z,7.55
2022-11-16T14:51:31.098Z,7.30
2022-11-16T14:54:02.946Z,7.53
2022-11-16T14:56:30.918Z,7.95
2022-11-16T14:59:00.555Z,7.43
2022-11-16T15:01:30.436Z,7.85
2022-11-16T15:04:03.270Z,7.93
2022-11-16T15:06:36.680Z,7.78
2022-11-16T15:09:06.327Z,10.18
2022-11-16T15:11:56.899Z,9.77
2022-11-16T15:14:28.385Z,12.23
2022-11-16T15:16:57.578Z,8.93
2022-11-16T15:19:30.435Z,9.40
2022-11-16T15:22:00.332Z,8.18
2022-11-16T15:24:31.547Z,10.40
2022-11-16T15:27:10.768Z,11.32
2022-11-16T15:29:39.793Z,10.27
2022-11-16T15:32:13.850Z,10.07
2022-11-16T15:34:43.877Z,17.10
2022-11-16T15:37:15.099Z,14.57
2022-11-16T15:39:44.159Z,14.80
2022-11-16T15:42:16.814Z,23.35
2022-11-16T15:44:45.709Z,23.23
2022-11-16T15:47:14.950Z,11.85
2022-11-16T15:49:49.700Z,9.85
2022-11-16T15:52:45.128Z,8.65
2022-11-16T15:55:25.048Z,10.15
2022-11-16T15:58:01.727Z,8.50
2022-11-16T16:00:31.683Z,9.90
2022-11-16T16:03:06.079Z,10.40
2022-11-16T16:05:37.124Z,14.23
2022-11-16T16:08:06.795Z,15.88
2022-11-16T16:10:34.811Z,11.63
2022-11-16T16:13:03.999Z,22.52
2022-11-16T16:15:36.041Z,12.77
2022-11-16T16:18:11.900Z,12.13
2022-11-16T16:20:48.248Z,10.82
2022-11-16T16:23:16.805Z,10.40
2022-11-16T16:25:50.242Z,11.68
2022-11-16T16:28:18.525Z,11.13
2022-11-16T16:30:46.681Z,13.15
2022-11-16T16:33:19.531Z,17.75
2022-11-16T16:35:49.784Z,14.95
2022-11-16T16:38:17.834Z,15.05
2022-11-16T16:40:45.895Z,14.00
2022-11-16T16:43:13.723Z,13.90
2022-11-16T16:45:43.768Z,13.40
2022-11-16T16:48:12.687Z,17.63
2022-11-16T16:50:41.235Z,17.85
2022-11-16T16:53:13.200Z,15.00
2022-11-16T16:55:41.846Z,15.73
2022-11-16T16:58:13.229Z,13.43
2022-11-16T17:00:42.010Z,13.13
2022-11-16T17:03:10.245Z,14.27
2022-11-16T17:05:38.886Z,11.93
2022-11-16T17:08:07.226Z,12.93
2022-11-16T17:10:38.408Z,12.90
2022-11-16T17:13:06.256Z,12.60
2022-11-16T17:15:34.441Z,13.00
2022-11-16T17:18:02.594Z,16.98
2022-11-16T17:20:30.712Z,13.75
2022-11-16T17:22:58.428Z,15.50
2022-11-16T17:25:26.674Z,19.08
2022-11-16T17:27:55.990Z,20.75
2022-11-16T17:30:23.985Z,27.73
2022-11-16T17:32:52.089Z,23.67
2022-11-16T17:35:20.977Z,23.38
2022-11-16T17:37:48.867Z,28.55
2022-11-16T17:40:17.045Z,19.30
2022-11-16T17:42:44.855Z,23.08
2022-11-16T17:45:14.428Z,21.50
2022-11-16T17:47:42.303Z,29.60
2022-11-16T17:50:11.142Z,23.63
2022-11-16T17:52:38.868Z,22.42
2022-11-16T17:55:08.159Z,48.83
2022-11-16T17:57:35.886Z,39.60
2022-11-16T18:00:04.840Z,32.78
2022-11-16T18:02:34.221Z,22.48
2022-11-16T18:05:02.195Z,24.35
2022-11-16T18:07:33.332Z,22.75
2022-11-16T18:10:01.517Z,21.58
2022-11-16T18:12:29.385Z,32.95
2022-11-16T18:15:26.490Z,25.80
2022-11-16T18:17:47.269Z,15.38
2022-11-16T18:20:15.379Z,14.60
2022-11-16T18:22:43.075Z,9.70
2022-11-16T18:25:11.348Z,11.18
2022-11-16T18:27:39.054Z,11.45
2022-11-16T18:30:08.449Z,23.67
2022-11-16T18:32:36.528Z,26.23
2022-11-16T18:35:09.991Z,21.95
2022-11-16T18:37:37.880Z,23.35
2022-11-16T18:40:06.972Z,14.23
2022-11-16T18:42:34.968Z,16.98
2022-11-16T18:45:03.488Z,10.80
2022-11-16T18:47:31.192Z,12.25
2022-11-16T18:49:59.524Z,14.30
2022-11-16T18:52:28.879Z,13.23
2022-11-16T18:54:56.847Z,12.15
2022-11-16T18:57:24.652Z,14.55
2022-11-16T18:59:53.145Z,14.98
2022-11-16T19:02:21.146Z,17.35
2022-11-16T19:04:49.501Z,12.55
2022-11-16T19:07:17.703Z,11.95
2022-11-16T19:09:47.028Z,11.35
2022-11-16T19:12:14.722Z,9.57
2022-11-16T19:14:42.897Z,14.32
2022-11-16T19:17:10.681Z,12.07
2022-11-16T19:19:38.727Z,15.13
2022-11-16T19:22:06.551Z,10.15
2022-11-16T19:24:34.608Z,12.80
2022-11-16T19:27:03.826Z,18.00
2022-11-16T19:29:31.897Z,10.07
2022-11-16T19:31:59.643Z,20.73
2022-11-16T19:34:32.985Z,16.02
2022-11-16T19:37:01.325Z,16.15
2022-11-16T19:39:29.636Z,15.95
2022-11-16T19:41:57.758Z,13.25
2022-11-16T19:44:27.292Z,10.98
2022-11-16T19:46:56.881Z,13.52
2022-11-16T19:49:24.866Z,8.98
2022-11-16T19:51:53.093Z,16.35
2022-11-16T19:54:21.490Z,11.50
2022-11-16T19:56:54.695Z,8.95
2022-11-16T19:59:23.621Z,9.13
2022-11-16T20:01:52.715Z,8.75
2022-11-16T20:04:20.752Z,11.55
2022-11-16T20:06:49.125Z,10.85
2022-11-16T20:09:17.136Z,11.68
2022-11-16T20:11:44.861Z,12.18
2022-11-16T20:14:14.318Z,11.82
2022-11-16T20:16:44.045Z,11.15
2022-11-16T20:19:14.522Z,11.45
2022-11-16T20:21:44.093Z,16.65
2022-11-16T20:24:13.796Z,18.85
2022-11-16T20:26:43.203Z,14.23
2022-11-16T20:29:12.177Z,10.85
2022-11-16T20:31:42.640Z,9.50
2022-11-16T20:34:14.984Z,10.38
2022-11-16T20:39:14.812Z,9.52
2022-11-16T20:41:43.921Z,7.90
2022-11-16T20:44:16.624Z,9.85
2022-11-16T20:46:45.352Z,9.75
2022-11-16T20:49:15.055Z,10.05
2022-11-16T20:51:42.933Z,12.95
2022-11-16T20:54:11.591Z,9.90
2022-11-16T20:56:39.611Z,11.02
2022-11-16T20:59:07.568Z,9.02
2022-11-16T21:01:35.304Z,10.00
2022-11-16T21:04:05.315Z,10.32
2022-11-16T21:06:34.760Z,10.15
2022-11-16T21:09:04.858Z,7.00
2022-11-16T21:11:54.696Z,7.95
2022-11-16T21:14:22.593Z,6.32
2022-11-16T21:16:50.850Z,9.45
2022-11-16T21:19:18.964Z,7.68
2022-11-16T21:21:48.059Z,6.15
2022-11-16T21:24:16.307Z,6.65
2022-11-16T21:26:44.035Z,9.00
2022-11-16T21:29:11.985Z,8.77
2022-11-16T21:31:39.912Z,9.02
2022-11-16T21:34:08.067Z,6.45
2022-11-16T21:36:36.086Z,4.13
2022-11-16T21:39:05.955Z,4.90
2022-11-16T21:41:33.889Z,4.95
2022-11-16T21:44:01.855Z,4.10
2022-11-16T21:46:29.968Z,4.50
2022-11-16T21:48:58.906Z,6.50
2022-11-16T21:51:27.819Z,4.03
2022-11-16T21:53:56.170Z,4.03
2022-11-16T21:56:26.845Z,3.55
2022-11-16T21:58:55.211Z,4.65
2022-11-16T22:01:24.604Z,3.67
2022-11-16T22:04:07.183Z,5.57
2022-11-16T22:06:52.714Z,3.47
2022-11-16T22:09:20.752Z,5.57
2022-11-16T22:11:50.091Z,4.80
2022-11-16T22:14:18.063Z,4.18
2022-11-16T22:16:45.815Z,3.70
2022-11-16T22:19:14.030Z,3.60
2022-11-16T22:21:41.939Z,3.47
2022-11-16T22:24:09.922Z,4.07
2022-11-16T22:26:39.827Z,3.00
2022-11-16T22:29:09.254Z,2.97
2022-11-16T22:31:37.057Z,3.70
2022-11-16T22:34:05.368Z,3.72
2022-11-16T22:36:33.188Z,4.25
2022-11-16T22:39:01.880Z,3.22
2022-11-16T22:41:29.744Z,4.22
2022-11-16T22:43:58.208Z,4.22
2022-11-16T22:46:27.391Z,3.60
2022-11-16T22:48:55.597Z,2.58
2022-11-16T22:51:25.105Z,3.03
2022-11-16T22:53:54.479Z,2.83
2022-11-16T22:56:22.404Z,3.13
2022-11-16T22:58:50.776Z,3.13
2022-11-16T23:01:19.240Z,3.10
2022-11-16T23:03:49.241Z,2.65
2022-11-16T23:06:17.446Z,3.22
2022-11-16T23:08:45.618Z,3.60
2022-11-16T23:11:32.833Z,5.95
2022-11-16T23:14:19.579Z,4.15
2022-11-16T23:16:47.901Z,4.38
2022-11-16T23:19:37.828Z,3.35
2022-11-16T23:22:23.968Z,2.58
2022-11-16T23:25:10.046Z,2.72
2022-11-16T23:27:41.609Z,2.60
2022-11-16T23:30:13.008Z,2.90
2022-11-16T23:32:42.016Z,2.83
2022-11-16T23:35:11.721Z,2.92
2022-11-16T23:37:51.496Z,4.00
2022-11-16T23:40:20.544Z,4.68
2022-11-16T23:43:05.856Z,4.75
2022-11-16T23:45:34.195Z,5.95
2022-11-16T23:48:02.000Z,5.40
2022-11-16T23:50:31.555Z,6.45
2022-11-16T23:52:59.764Z,5.50
2022-11-16T23:55:28.088Z,4.88
2022-11-16T23:57:56.244Z,6.72
